• Join FlightAware (Why Join?)
  • Login
  • US Flag 
12:51AM EDT


 

Airport Tracker/Info


-or-


 

Live Flight TrackerFlight Track Log ✈ N1817Z ✈ 16-Jun-2013 ✈ KORL - KLZU

Flight Track Log - Related Links

Times and Time Zones

All times are in EDT time to prevent confusion due to time zone crossing. See the N1817Z flight status page for this flight to view local times or setup timezone preferences in your user account.

Time Position Orientation Groundspeed Altitude Reporting Facility
EDT Latitude Longitude Course Direction KTS MPH feet Rate Location/Type
10:14AM 28.5500 -81.3167 360° North 107 123 400  Level Orlando TRACON
10:14AM 28.5667 -81.3167 360° North 115 132 600 420 Climbing Orlando TRACON
10:15AM 28.5833 -81.3500 300° West 123 142 1,000 180 Climbing Orlando TRACON
10:16AM 28.6167 -81.3833 319° Northwest 148 170 1,000  Level Orlando TRACON
10:17AM 28.6500 -81.4167 319° Northwest 158 182 1,100 300 Climbing Orlando TRACON
10:18AM 28.6667 -81.4500 300° West 129 148 1,700 540 Climbing Orlando TRACON
10:19AM 28.7000 -81.4833 319° Northwest 121 139 2,300 540 Climbing Orlando TRACON
10:20AM 28.7333 -81.5000 336° Northwest 127 146 2,900 600 Climbing Orlando TRACON
10:21AM 28.7500 -81.5333 300° West 131 151 3,500 600 Climbing Orlando TRACON
10:22AM 28.7833 -81.5667 319° Northwest 124 143 4,100 540 Climbing Orlando TRACON
10:23AM 28.8000 -81.5833 319° Northwest 120 138 4,600 420 Climbing Orlando TRACON
10:24AM 28.8333 -81.6167 319° Northwest 121 139 5,000 360 Climbing Orlando TRACON
10:26AM 28.8872 -81.6831 313° West 132 152 6,000 420 Climbing Jacksonville Center
10:27AM 28.9167 -81.7067 325° Northwest 128 147 6,400 360 Climbing Jacksonville Center
10:28AM 28.9356 -81.7231 323° Northwest 129 148 6,700 360 Climbing Jacksonville Center
10:29AM 28.9672 -81.7511 322° Northwest 133 153 7,100 420 Climbing Jacksonville Center
10:30AM 29.0008 -81.7792 324° Northwest 134 154 7,600 420 Climbing Jacksonville Center
10:31AM 29.0303 -81.8050 323° Northwest 132 152 8,000 360 Climbing Jacksonville Center
10:32AM 29.0617 -81.8189 339° North 130 150 8,400 240 Climbing Jacksonville Center
10:33AM 29.1036 -81.8303 347° North 148 170 8,500  Climbing Jacksonville Center
10:34AM 29.1453 -81.8511 336° Northwest 162 186 8,500  Level Jacksonville Center
10:35AM 29.1894 -81.8722 337° Northwest 165 190 8,500  Level Jacksonville Center
10:36AM 29.2314 -81.8883 341° North 168 193 8,500  Level Jacksonville Center
10:37AM 29.2772 -81.9044 343° North 167 192 8,500  Level Jacksonville Center
10:38AM 29.3214 -81.9256 337° Northwest 167 192 8,500  Level Jacksonville Center
10:39AM 29.3653 -81.9442 340° North 168 193 8,500  Level Jacksonville Center
10:41AM 29.4156 -81.9628 342° North 169 194 8,500  Level Jacksonville Center
10:42AM 29.4575 -81.9792 341° North 162 186 8,500  Level Jacksonville Center
10:42AM 29.4972 -81.9956 340° North 154 177 8,500 -60 Level Jacksonville Center
10:43AM 29.5392 -82.0142 339° North 159 183 8,400 -60 Descending Jacksonville Center
10:44AM 29.5789 -82.0306 340° North 158 182 8,400  Level Jacksonville Center
10:45AM 29.6247 -82.0467 343° North 159 183 8,400  Level Jacksonville Center
10:47AM 29.6647 -82.0633 340° North 156 180 8,400  Level Jacksonville Center
10:48AM 29.7064 -82.0844 336° Northwest 156 180 8,400  Level Jacksonville Center
10:49AM 29.7483 -82.1008 341° North 156 180 8,400  Level Jacksonville Center
10:49AM 29.7861 -82.1147 342° North 158 182 8,400  Level Jacksonville Center
10:51AM 29.8300 -82.1311 342° North 155 178 8,400  Level Jacksonville Center
10:51AM 29.8678 -82.1478 339° North 156 180 8,400  Level Jacksonville Center
10:53AM 29.9075 -82.1664 338° Northwest 154 177 8,400  Level Jacksonville Center
10:54AM 29.9536 -82.1878 338° Northwest 155 178 8,400  Level Jacksonville Center
10:55AM 29.9994 -82.2067 340° North 155 178 8,400  Level Jacksonville Center
10:56AM 30.0392 -82.2208 343° North 155 178 8,400  Level Jacksonville Center
10:57AM 30.0747 -82.2350 341° North 160 184 8,400  Level Jacksonville Center
10:58AM 30.1147 -82.2539 338° Northwest 160 184 8,400  Level Jacksonville Center
10:59AM 30.1544 -82.2703 340° North 154 177 8,500  Climbing Jacksonville Center
11:00AM 30.1942 -82.2844 343° North 148 170 8,500  Level Jacksonville Center
11:01AM 30.2339 -82.3011 340° North 148 170 8,500  Level Jacksonville Center
11:02AM 30.2736 -82.3200 338° Northwest 148 170 8,500  Level Jacksonville Center
11:03AM 30.3133 -82.3392 337° Northwest 148 170 8,500  Level Jacksonville Center
11:04AM 30.3531 -82.3533 343° North 148 170 8,500  Level Jacksonville Center
11:05AM 30.3928 -82.3700 340° North 148 170 8,500  Level Jacksonville Center
11:06AM 30.4325 -82.3867 340° North 148 170 8,500  Level Jacksonville Center
11:07AM 30.4703 -82.4058 336° Northwest 148 170 8,500  Level Jacksonville Center
11:08AM 30.5119 -82.4225 341° North 148 170 8,500  Level Jacksonville Center
11:09AM 30.5475 -82.4367 341° North 148 170 8,500  Level Jacksonville Center
11:10AM 30.5872 -82.4558 337° Northwest 148 170 8,500  Level Jacksonville Center
11:11AM 30.6269 -82.4725 340° North 148 170 8,500  Level Jacksonville Center
11:12AM 30.6667 -82.4892 340° North 148 170 8,500  Level Jacksonville Center
11:13AM 30.7064 -82.5061 340° North 148 170 8,500  Level Jacksonville Center
11:14AM 30.7442 -82.5253 336° Northwest 148 170 8,500  Level Jacksonville Center
11:15AM 30.7858 -82.5394 344° North 148 170 8,500  Level Jacksonville Center
11:16AM 30.8236 -82.5564 339° North 148 170 8,500  Level Jacksonville Center
11:17AM 30.8653 -82.5756 338° Northwest 148 170 8,500  Level Jacksonville Center
11:18AM 30.9050 -82.5922 340° North 148 170 8,500  Level Jacksonville Center
11:19AM 30.9469 -82.6092 341° North 148 170 8,500  Level Jacksonville Center
11:20AM 30.9867 -82.6283 338° Northwest 153 176 8,500  Level Jacksonville Center
11:21AM 31.0283 -82.6453 341° North 153 176 8,500  Level Jacksonville Center
11:22AM 31.0703 -82.6622 341° North 153 176 8,500  Level Jacksonville Center
11:23AM 31.1142 -82.6814 340° North 158 182 8,500  Level Jacksonville Center
11:24AM 31.1642 -82.7008 342° North 171 197 8,500  Level Jacksonville Center
11:25AM 31.2081 -82.7200 340° North 176 203 8,500  Level Jacksonville Center
11:26AM 31.2542 -82.7419 338° Northwest 176 203 8,500  Level Jacksonville Center
11:27AM 31.3000 -82.7636 338° Northwest 170 196 8,500  Level Jacksonville Center
11:28AM 31.3458 -82.7806 342° North 170 196 8,500  Level Jacksonville Center
11:29AM 31.3856 -82.8000 337° Northwest 170 196 8,500  Level Jacksonville Center
11:30AM 31.4294 -82.8147 344° North 170 196 8,500  Level Jacksonville Center
11:31AM 31.4714 -82.8367 336° Northwest 165 190 8,500  Level Jacksonville Center
11:32AM 31.5131 -82.8536 341° North 160 184 8,500  Level Jacksonville Center
11:33AM 31.5547 -82.8731 338° Northwest 160 184 8,500  Level Jacksonville Center
11:34AM 31.5967 -82.8878 343° North 160 184 8,500  Level Jacksonville Center
11:35AM 31.6383 -82.9072 338° Northwest 155 178 8,500  Level Jacksonville Center
11:36AM 31.6781 -82.9267 337° Northwest 155 178 8,500  Level Jacksonville Center
11:37AM 31.7197 -82.9439 341° North 155 178 8,500  Level Jacksonville Center
11:38AM 31.7614 -82.9633 338° Northwest 155 178 8,500  Level Jacksonville Center
11:39AM 31.8033 -82.9806 341° North 155 178 8,500  Level Jacksonville Center
11:40AM 31.8450 -83.0003 338° Northwest 155 178 8,500  Level Jacksonville Center
11:41AM 31.8847 -83.0172 340° North 155 178 8,500  Level Jacksonville Center
11:42AM 31.9264 -83.0369 338° Northwest 155 178 8,500  Level Jacksonville Center
11:43AM 31.9681 -83.0542 341° North 155 178 8,500  Level Jacksonville Center
11:44AM 32.0097 -83.0714 341° North 155 178 8,500  Level Jacksonville Center
11:45AM 32.0517 -83.0886 341° North 155 178 8,500  Level Jacksonville Center
11:46AM 32.0911 -83.1083 337° Northwest 155 178 8,500  Level Jacksonville Center
11:47AM 32.1308 -83.1256 340° North 155 178 8,500  Level Jacksonville Center
11:48AM 32.2167 -83.1667 338° Northwest 163 188 8,500  Level Atlanta TRACON
11:49AM 32.2500 -83.1833 337° Northwest 160 184 8,500  Level Atlanta TRACON
11:50AM 32.3000 -83.2000 344° North 160 184 8,500 -120 Level Atlanta TRACON
11:51AM 32.3333 -83.2167 337° Northwest 164 189 8,300 -60 Descending Atlanta TRACON
11:52AM 32.3833 -83.2167 360° North 154 177 8,400  Climbing Atlanta TRACON
11:53AM 32.4167 -83.2500 320° Northwest 153 176 8,400 -180 Level Atlanta TRACON
11:54AM 32.4667 -83.2667 344° North 167 192 8,100 -240 Descending Atlanta TRACON
11:55AM 32.5167 -83.2833 344° North 169 194 7,900 -240 Descending Atlanta TRACON
11:56AM 32.5500 -83.3000 337° Northwest 169 194 7,700 -300 Descending Atlanta TRACON
11:57AM 32.6000 -83.3167 344° North 168 193 7,400 -240 Descending Atlanta TRACON
11:59AM 32.6500 -83.3333 344° North 168 193 7,200 -240 Descending Atlanta TRACON
11:59AM 32.6833 -83.3667 320° Northwest 165 190 7,000 -240 Descending Atlanta TRACON
12:01PM 32.7333 -83.3833 344° North 165 190 6,800 -300 Descending Atlanta TRACON
12:01PM 32.7667 -83.4000 337° Northwest 168 193 6,500 -180 Descending Atlanta TRACON
12:02PM 32.8167 -83.4167 344° North 159 183 6,500  Level Atlanta TRACON
12:03PM 32.8500 -83.4333 337° Northwest 155 178 6,500  Level Atlanta TRACON
12:04PM 32.8833 -83.4500 337° Northwest 156 180 6,500  Level Atlanta TRACON
12:05PM 32.9333 -83.4667 344° North 157 181 6,500  Level Atlanta TRACON
12:06PM 32.9667 -83.4833 337° Northwest 156 180 6,500  Level Atlanta TRACON
12:07PM 33.0167 -83.5000 344° North 156 180 6,500  Level Atlanta TRACON
12:08PM 33.0500 -83.5167 337° Northwest 156 180 6,500  Level Atlanta TRACON
12:09PM 33.0833 -83.5500 320° Northwest 158 182 6,500  Level Atlanta TRACON
12:10PM 33.1333 -83.5833 331° Northwest 157 181 6,500  Level Atlanta TRACON
12:11PM 33.1667 -83.6000 337° Northwest 158 182 6,500 -120 Level Atlanta TRACON
12:12PM 33.2167 -83.6167 344° North 163 188 6,300 -180 Descending Atlanta TRACON
12:13PM 33.2500 -83.6333 337° Northwest 168 193 6,200 -180 Descending Atlanta TRACON
12:14PM 33.3000 -83.6667 331° Northwest 168 193 6,000 -180 Descending Atlanta TRACON
12:15PM 33.3333 -83.6833 337° Northwest 165 190 5,900 -180 Descending Atlanta TRACON
12:16PM 33.3833 -83.7000 344° North 174 200 5,700 -240 Descending Atlanta TRACON
12:18PM 33.4333 -83.7333 331° Northwest 170 196 5,500 -180 Descending Atlanta TRACON
12:19PM 33.4833 -83.7500 344° North 169 194 5,400 -180 Descending Atlanta TRACON
12:20PM 33.5167 -83.7667 337° Northwest 169 194 5,200 -180 Descending Atlanta TRACON
12:21PM 33.5667 -83.7833 344° North 172 198 5,100 -240 Descending Atlanta TRACON
12:22PM 33.6000 -83.8000 337° Northwest 172 198 4,800 -480 Descending Atlanta TRACON
12:22PM 33.6500 -83.8167 344° North 183 211 4,300 -660 Descending Atlanta TRACON
12:24PM 33.7000 -83.8333 345° North 194 223 3,500 -660 Descending Atlanta TRACON
12:26PM 33.8000 -83.8833 337° Northwest 189 217 2,400 -420 Descending Atlanta TRACON
12:27PM 33.8500 -83.9000 345° North 163 188 2,400  Level Atlanta TRACON
12:28PM 33.9000 -83.9167 345° North 163 188 2,400 -120 Level Atlanta TRACON
12:29PM 33.9333 -83.9333 337° Northwest 147 169 2,200 -300 Descending Atlanta TRACON
12:30PM 33.9667 -83.9167 23° Northeast 120 138 1,900 -300 Descending Atlanta TRACON
12:32PM 33.9667 -83.9500 North  Level FlightAware Approximate
12:39PM 33.9781 -83.9624 North  Level Estimated
12:40PM 33.9781 -83.9624 North  Level Estimated